createdAt,value
2018-07-23T00:00:07.987Z,2.27
2018-07-23T00:02:37.059Z,1.70
2018-07-23T00:05:06.168Z,2.47
2018-07-23T00:07:35.221Z,1.97
2018-07-23T00:10:04.837Z,2.00
2018-07-23T00:12:34.383Z,1.60
2018-07-23T00:15:03.963Z,2.97
2018-07-23T00:17:33.263Z,1.90
2018-07-23T00:20:02.812Z,2.07
2018-07-23T00:22:32.100Z,2.03
2018-07-23T00:25:01.403Z,3.00
2018-07-23T00:27:30.797Z,2.53
2018-07-23T00:30:00.098Z,2.07
2018-07-23T00:32:29.668Z,2.30
2018-07-23T00:34:58.952Z,2.37
2018-07-23T00:37:28.268Z,2.33
2018-07-23T00:39:57.567Z,1.93
2018-07-23T00:42:26.893Z,2.57
2018-07-23T00:44:56.427Z,2.63
2018-07-23T00:47:25.717Z,2.60
2018-07-23T00:49:54.799Z,3.80
2018-07-23T00:52:24.125Z,3.17
2018-07-23T00:54:53.419Z,2.30
2018-07-23T00:57:22.497Z,2.53
2018-07-23T00:59:51.809Z,2.37
2018-07-23T01:02:21.089Z,2.30
2018-07-23T01:04:50.160Z,2.67
2018-07-23T01:07:19.487Z,2.67
2018-07-23T01:09:48.551Z,4.63
2018-07-23T01:12:23.761Z,3.67
2018-07-23T01:14:53.053Z,2.27
2018-07-23T01:17:22.361Z,2.10
2018-07-23T01:19:52.957Z,2.67
2018-07-23T01:22:23.263Z,2.37
2018-07-23T01:24:52.891Z,4.53
2018-07-23T01:27:21.974Z,2.30
2018-07-23T01:29:51.293Z,2.37
2018-07-23T01:32:21.079Z,2.10
2018-07-23T01:34:50.399Z,4.50
2018-07-23T01:37:19.758Z,2.37
2018-07-23T01:39:49.303Z,2.90
2018-07-23T01:42:18.626Z,2.70
2018-07-23T01:44:47.948Z,3.07
2018-07-23T01:47:23.691Z,3.97
2018-07-23T01:49:52.778Z,3.53
2018-07-23T01:52:22.088Z,2.60
2018-07-23T01:54:51.619Z,2.90
2018-07-23T01:57:20.941Z,3.07
2018-07-23T01:59:50.232Z,3.17
2018-07-23T02:02:19.531Z,2.73
2018-07-23T02:04:48.848Z,2.33
2018-07-23T02:07:18.122Z,6.70
2018-07-23T02:09:47.443Z,3.40
2018-07-23T02:12:16.966Z,3.23
2018-07-23T02:14:46.284Z,3.83
2018-07-23T02:17:15.348Z,3.47
2018-07-23T02:19:44.436Z,3.53
2018-07-23T02:22:13.520Z,5.57
2018-07-23T02:24:42.590Z,3.87
2018-07-23T02:27:11.839Z,3.93
2018-07-23T02:29:40.922Z,3.90
2018-07-23T02:32:09.993Z,3.23
2018-07-23T02:34:39.088Z,4.33
2018-07-23T02:37:08.395Z,4.10
2018-07-23T02:39:37.682Z,13.83
2018-07-23T02:42:06.994Z,7.70
2018-07-23T02:44:36.527Z,6.00
2018-07-23T02:47:06.020Z,4.40
2018-07-23T02:49:35.106Z,4.20
2018-07-23T02:52:04.169Z,3.83
2018-07-23T02:54:33.297Z,4.40
2018-07-23T02:57:02.549Z,4.37
2018-07-23T02:59:31.667Z,5.63
2018-07-23T03:02:00.703Z,7.00
2018-07-23T03:04:30.021Z,4.87
2018-07-23T03:06:59.319Z,4.47
2018-07-23T03:09:28.648Z,4.30
2018-07-23T03:11:58.197Z,5.50
2018-07-23T03:14:27.509Z,5.50
2018-07-23T03:16:56.809Z,5.20
2018-07-23T03:19:26.128Z,6.10
2018-07-23T03:21:55.586Z,5.03
2018-07-23T03:24:24.994Z,5.67
2018-07-23T03:26:54.519Z,5.90
2018-07-23T03:29:23.808Z,5.57
2018-07-23T03:31:59.294Z,6.83
2018-07-23T03:34:28.379Z,12.30
2018-07-23T03:36:57.672Z,6.40
2018-07-23T03:39:26.966Z,4.93
2018-07-23T03:41:56.302Z,5.53
2018-07-23T03:44:25.843Z,5.50
2018-07-23T03:46:55.131Z,5.40
2018-07-23T03:49:24.476Z,5.67
2018-07-23T03:51:53.781Z,5.63
2018-07-23T03:54:23.153Z,4.83
2018-07-23T03:56:52.701Z,4.90
2018-07-23T03:59:22.008Z,5.00
2018-07-23T04:01:51.324Z,4.40
2018-07-23T04:04:20.847Z,5.33
2018-07-23T04:06:56.596Z,4.97
2018-07-23T04:09:25.897Z,5.60
2018-07-23T04:11:55.423Z,4.77
2018-07-23T04:14:24.719Z,4.30
2018-07-23T04:16:54.035Z,4.50
2018-07-23T04:19:23.348Z,6.10
2018-07-23T04:21:52.676Z,10.00
2018-07-23T04:24:22.261Z,6.30
2018-07-23T04:26:51.834Z,4.30
2018-07-23T04:29:21.118Z,4.50
2018-07-23T04:31:50.201Z,5.03
2018-07-23T04:34:19.284Z,4.50
2018-07-23T04:36:48.361Z,5.37
2018-07-23T04:39:23.868Z,4.83
2018-07-23T04:41:53.151Z,4.23
2018-07-23T04:44:22.798Z,5.30
2018-07-23T04:46:51.895Z,4.67
2018-07-23T04:49:21.206Z,3.80
2018-07-23T04:51:50.466Z,3.63
2018-07-23T04:54:19.811Z,3.93
2018-07-23T04:56:49.161Z,3.77
2018-07-23T04:59:18.180Z,6.93
2018-07-23T05:01:47.502Z,3.90
2018-07-23T05:04:17.052Z,4.47
2018-07-23T05:06:46.594Z,4.13
2018-07-23T05:09:16.169Z,5.03
2018-07-23T05:11:45.463Z,3.47
2018-07-23T05:14:14.730Z,4.33
2018-07-23T05:16:43.802Z,2.77
2018-07-23T05:19:13.112Z,2.77
2018-07-23T05:21:42.395Z,3.03
2018-07-23T05:24:11.736Z,2.30
2018-07-23T05:26:41.252Z,2.47
2018-07-23T05:29:10.541Z,1.90
2018-07-23T05:31:39.670Z,1.83
2018-07-23T05:34:08.696Z,2.57
2018-07-23T05:36:37.830Z,2.00
2018-07-23T05:39:07.979Z,2.47
2018-07-23T05:41:37.037Z,1.80
2018-07-23T05:44:06.370Z,1.80
2018-07-23T05:46:35.653Z,2.23
2018-07-23T05:49:04.977Z,2.37
2018-07-23T05:51:34.287Z,1.80
2018-07-23T05:54:03.663Z,6.90
2018-07-23T05:56:33.241Z,5.13
2018-07-23T05:59:02.769Z,3.90
2018-07-23T06:01:32.071Z,3.47
2018-07-23T06:04:02.272Z,1.90
2018-07-23T06:06:31.595Z,2.40
2018-07-23T06:09:00.670Z,2.83
2018-07-23T06:11:30.011Z,4.57
2018-07-23T06:13:59.523Z,24.03
2018-07-23T06:16:28.831Z,62.70
2018-07-23T06:18:58.477Z,68.40
2018-07-23T06:21:27.785Z,89.17
2018-07-23T06:23:57.131Z,80.60
2018-07-23T06:26:26.683Z,59.27
2018-07-23T06:28:56.242Z,80.03
2018-07-23T06:31:25.548Z,77.20
2018-07-23T06:33:54.897Z,68.50
2018-07-23T06:36:24.663Z,68.67
2018-07-23T06:38:53.967Z,71.40
2018-07-23T06:41:23.082Z,78.60
2018-07-23T06:43:52.485Z,62.00
2018-07-23T06:46:21.576Z,55.60
2018-07-23T06:48:50.658Z,57.47
2018-07-23T06:51:19.983Z,47.30
2018-07-23T06:53:49.519Z,47.63
2018-07-23T06:56:18.839Z,47.67
2018-07-23T06:58:48.211Z,49.63
2018-07-23T07:01:18.476Z,14.40
2018-07-23T07:03:48.044Z,10.20
2018-07-23T07:06:17.673Z,10.50
2018-07-23T07:08:46.942Z,9.90
2018-07-23T07:11:16.273Z,5.80
2018-07-23T07:13:45.550Z,4.67
2018-07-23T07:16:14.852Z,7.50
2018-07-23T07:18:44.388Z,5.87
2018-07-23T07:21:13.888Z,6.60
2018-07-23T07:23:43.229Z,4.33
2018-07-23T07:26:12.552Z,6.80
2018-07-23T07:28:41.640Z,7.80
2018-07-23T07:31:10.947Z,4.83
2018-07-23T07:33:40.249Z,5.60
2018-07-23T07:36:09.335Z,6.67
2018-07-23T07:38:38.415Z,8.03
2018-07-23T07:41:07.736Z,13.73
2018-07-23T07:43:37.284Z,6.73
2018-07-23T07:46:06.566Z,9.73
2018-07-23T07:48:35.910Z,5.33
2018-07-23T07:51:05.366Z,10.93
2018-07-23T07:53:34.430Z,11.20
2018-07-23T07:56:03.742Z,10.93
2018-07-23T07:58:33.049Z,7.83
2018-07-23T08:01:02.120Z,8.93
2018-07-23T08:03:31.183Z,4.97
2018-07-23T08:06:00.496Z,4.67
2018-07-23T08:08:29.796Z,4.97
2018-07-23T08:10:59.110Z,4.53
2018-07-23T08:13:28.657Z,5.50
2018-07-23T08:15:57.979Z,4.80
2018-07-23T08:18:27.249Z,7.23
2018-07-23T08:20:56.561Z,4.50
2018-07-23T08:23:25.631Z,8.23
2018-07-23T08:25:54.947Z,6.90
2018-07-23T08:28:25.157Z,4.47
2018-07-23T08:30:54.226Z,4.00
2018-07-23T08:33:23.550Z,6.60
2018-07-23T08:35:52.855Z,9.00
2018-07-23T08:38:22.170Z,3.87
2018-07-23T08:40:52.578Z,4.23
2018-07-23T08:43:22.715Z,3.77
2018-07-23T08:45:52.011Z,5.83
2018-07-23T08:48:21.321Z,3.57
2018-07-23T08:50:50.627Z,4.33
2018-07-23T08:53:19.931Z,5.90
2018-07-23T08:55:49.260Z,3.63
2018-07-23T08:58:18.802Z,3.87
2018-07-23T09:00:48.118Z,6.30
2018-07-23T09:03:17.196Z,4.53
2018-07-23T09:05:46.663Z,8.43
2018-07-23T09:08:15.731Z,4.00
2018-07-23T09:10:44.855Z,4.07
2018-07-23T09:13:13.938Z,4.70
2018-07-23T09:15:42.998Z,5.97
2018-07-23T09:18:12.318Z,6.60
2018-07-23T09:20:41.606Z,4.17
2018-07-23T09:23:10.700Z,11.97
2018-07-23T09:25:45.976Z,4.67
2018-07-23T09:28:16.449Z,4.67
2018-07-23T09:30:51.442Z,6.23
2018-07-23T09:33:22.363Z,7.50
2018-07-23T09:35:52.576Z,6.23
2018-07-23T09:38:22.632Z,4.20
2018-07-23T09:40:52.732Z,8.50
2018-07-23T09:43:22.252Z,6.13
2018-07-23T09:45:51.797Z,6.10
2018-07-23T09:48:21.054Z,6.33
2018-07-23T09:50:50.130Z,13.00
2018-07-23T09:53:19.220Z,6.97
2018-07-23T09:55:48.541Z,4.83
2018-07-23T09:58:17.843Z,11.27
2018-07-23T10:00:52.468Z,9.67
2018-07-23T10:03:22.066Z,4.17
2018-07-23T10:05:51.751Z,6.57
2018-07-23T10:08:21.276Z,9.33
2018-07-23T10:10:50.840Z,4.57
2018-07-23T10:13:20.356Z,3.63
2018-07-23T10:15:49.899Z,3.60
2018-07-23T10:18:19.430Z,8.50
2018-07-23T10:20:48.952Z,4.40
2018-07-23T10:23:18.484Z,3.30
2018-07-23T10:25:48.004Z,3.70
2018-07-23T10:28:17.302Z,5.67
2018-07-23T10:30:46.614Z,6.83
2018-07-23T10:33:16.557Z,4.03
2018-07-23T10:35:46.123Z,3.90
2018-07-23T10:38:15.840Z,4.10
2018-07-23T10:40:45.392Z,8.57
2018-07-23T10:43:15.415Z,7.20
2018-07-23T10:45:44.965Z,3.83
2018-07-23T10:48:14.555Z,4.57
2018-07-23T10:50:43.640Z,4.53
2018-07-23T10:53:12.705Z,6.80
2018-07-23T10:55:42.048Z,4.33
2018-07-23T10:58:11.330Z,7.43
2018-07-23T11:00:40.628Z,5.47
2018-07-23T11:03:10.164Z,4.97
2018-07-23T11:05:39.463Z,10.00
2018-07-23T11:08:08.552Z,4.73
2018-07-23T11:10:37.650Z,14.73
2018-07-23T11:13:06.733Z,5.20
2018-07-23T11:15:35.795Z,5.03
2018-07-23T11:18:05.136Z,9.57
2018-07-23T11:20:34.431Z,15.60
2018-07-23T11:23:03.789Z,8.17
2018-07-23T11:25:40.672Z,5.77
2018-07-23T11:28:02.623Z,5.03
2018-07-23T11:30:31.957Z,4.67
2018-07-23T11:33:01.684Z,6.30
2018-07-23T11:35:30.981Z,3.97
2018-07-23T11:38:00.295Z,9.80
2018-07-23T11:40:29.598Z,4.83
2018-07-23T11:42:59.198Z,5.70
2018-07-23T11:45:28.713Z,4.37
2018-07-23T11:47:58.029Z,4.70
2018-07-23T11:50:27.111Z,4.47
2018-07-23T11:52:56.167Z,3.83
2018-07-23T11:55:25.505Z,6.10
2018-07-23T11:57:55.028Z,15.40
2018-07-23T12:00:24.334Z,6.77
2018-07-23T12:02:53.619Z,3.20
2018-07-23T12:05:22.920Z,7.13
2018-07-23T12:07:51.994Z,2.93
2018-07-23T12:10:21.081Z,3.83
2018-07-23T12:12:50.429Z,3.50
2018-07-23T12:15:19.724Z,3.73
2018-07-23T12:17:48.783Z,5.90
2018-07-23T12:20:18.115Z,3.53
2018-07-23T12:22:47.446Z,6.03
2018-07-23T12:25:16.758Z,4.00
2018-07-23T12:27:46.059Z,4.20
2018-07-23T12:30:15.373Z,9.40
2018-07-23T12:32:44.674Z,3.33
2018-07-23T12:35:13.749Z,3.43
2018-07-23T12:37:42.838Z,4.60
2018-07-23T12:40:12.182Z,3.30
2018-07-23T12:42:41.791Z,5.53
2018-07-23T12:45:11.336Z,3.60
2018-07-23T12:47:40.604Z,3.97
2018-07-23T12:50:09.671Z,4.30
2018-07-23T12:52:38.748Z,3.70
2018-07-23T12:55:08.077Z,11.13
2018-07-23T12:57:37.368Z,6.60
2018-07-23T13:00:07.207Z,3.50
2018-07-23T13:02:36.497Z,3.53
2018-07-23T13:05:05.845Z,3.40
2018-07-23T13:07:35.380Z,8.93
2018-07-23T13:10:05.354Z,5.83
2018-07-23T13:12:34.637Z,3.77
2018-07-23T13:15:04.501Z,5.63
2018-07-23T13:17:33.804Z,3.97
2018-07-23T13:20:03.108Z,4.10
2018-07-23T13:22:32.431Z,8.60
2018-07-23T13:25:01.696Z,9.27
2018-07-23T13:27:30.997Z,2.93
2018-07-23T13:30:00.308Z,4.37
2018-07-23T13:32:29.828Z,3.43
2018-07-23T13:34:59.383Z,2.93
2018-07-23T13:37:28.463Z,2.80
2018-07-23T13:39:57.540Z,2.67
2018-07-23T13:42:26.877Z,3.13
2018-07-23T13:44:56.168Z,6.10
2018-07-23T13:47:25.525Z,3.07
2018-07-23T13:49:54.816Z,3.80
2018-07-23T13:52:24.128Z,2.77
2018-07-23T13:54:53.428Z,5.23
2018-07-23T13:57:22.491Z,3.80
2018-07-23T13:59:51.792Z,6.70
2018-07-23T14:02:21.326Z,3.20
2018-07-23T14:04:50.875Z,3.17
2018-07-23T14:07:20.181Z,2.90
2018-07-23T14:09:49.848Z,3.60
2018-07-23T14:12:19.376Z,6.23
2018-07-23T14:14:48.671Z,2.93
2018-07-23T14:17:17.797Z,3.70
2018-07-23T14:19:46.887Z,2.90
2018-07-23T14:22:15.976Z,10.23
2018-07-23T14:24:45.301Z,3.20
2018-07-23T14:27:14.850Z,3.63
2018-07-23T14:29:44.145Z,3.27
2018-07-23T14:32:13.480Z,3.80
2018-07-23T14:34:42.759Z,4.53
2018-07-23T14:37:12.095Z,4.97
2018-07-23T14:39:41.645Z,3.53
2018-07-23T14:42:10.945Z,2.60
2018-07-23T14:44:40.265Z,10.43
2018-07-23T14:47:09.564Z,6.30
2018-07-23T14:49:38.643Z,2.90
2018-07-23T14:52:07.991Z,3.30
2018-07-23T14:54:37.504Z,6.50
2018-07-23T14:57:07.033Z,3.60
2018-07-23T14:59:36.559Z,3.40
2018-07-23T15:02:06.557Z,5.00
2018-07-23T15:04:35.851Z,5.67
2018-07-23T15:07:05.354Z,5.23
2018-07-23T15:09:34.632Z,4.83
2018-07-23T15:12:03.984Z,3.43
2018-07-23T15:14:33.656Z,3.10
2018-07-23T15:17:03.447Z,4.63
2018-07-23T15:19:32.982Z,3.30
2018-07-23T15:22:02.561Z,3.70
2018-07-23T15:24:32.324Z,3.83
2018-07-23T15:27:01.644Z,4.67
2018-07-23T15:29:31.187Z,4.03
2018-07-23T15:32:00.507Z,3.90
2018-07-23T15:34:29.807Z,4.30
2018-07-23T15:36:59.125Z,3.93
2018-07-23T15:39:28.436Z,4.27
2018-07-23T15:41:57.554Z,4.03
2018-07-23T15:44:27.014Z,4.50
2018-07-23T15:46:56.209Z,20.00
2018-07-23T15:49:25.305Z,14.50
2018-07-23T15:51:54.634Z,11.40
2018-07-23T15:54:24.214Z,5.00
2018-07-23T15:56:53.775Z,3.97
2018-07-23T15:59:23.062Z,7.00
2018-07-23T16:01:52.378Z,4.47
2018-07-23T16:04:21.941Z,4.80
2018-07-23T16:06:51.218Z,4.60
2018-07-23T16:09:20.571Z,8.60
2018-07-23T16:11:49.869Z,6.93
2018-07-23T16:14:18.951Z,3.90
2018-07-23T16:16:48.052Z,4.60
2018-07-23T16:19:17.126Z,4.17
2018-07-23T16:21:46.245Z,6.63
2018-07-23T16:24:15.564Z,3.93
2018-07-23T16:26:45.151Z,6.60
2018-07-23T16:29:14.679Z,7.63
2018-07-23T16:31:44.244Z,4.93
2018-07-23T16:34:20.232Z,3.83
2018-07-23T16:36:49.782Z,4.40
2018-07-23T16:39:19.074Z,3.30
2018-07-23T16:41:48.397Z,4.40
2018-07-23T16:44:17.706Z,3.97
2018-07-23T16:46:46.814Z,4.97
2018-07-23T16:49:15.905Z,4.20
2018-07-23T16:51:44.992Z,13.53
2018-07-23T16:54:15.274Z,4.50
2018-07-23T16:56:44.790Z,4.10
2018-07-23T16:59:14.093Z,5.07
2018-07-23T17:01:43.167Z,7.03
2018-07-23T17:04:12.677Z,4.17
2018-07-23T17:06:42.007Z,6.03
2018-07-23T17:09:17.854Z,5.27
2018-07-23T17:11:46.960Z,8.30
2018-07-23T17:14:16.062Z,4.37
2018-07-23T17:16:45.126Z,4.37
2018-07-23T17:19:14.215Z,6.73
2018-07-23T17:21:43.303Z,7.40
2018-07-23T17:24:12.678Z,3.80
2018-07-23T17:26:42.328Z,7.70
2018-07-23T17:29:11.728Z,3.63
2018-07-23T17:31:41.023Z,5.03
2018-07-23T17:34:10.324Z,10.60
2018-07-23T17:36:39.644Z,6.40
2018-07-23T17:39:11.283Z,5.60
2018-07-23T17:41:40.559Z,15.43
2018-07-23T17:44:09.936Z,4.30
2018-07-23T17:46:39.448Z,8.03
2018-07-23T17:49:08.743Z,6.60
2018-07-23T17:51:38.030Z,10.00
2018-07-23T17:54:07.311Z,4.50
2018-07-23T17:56:36.642Z,4.50
2018-07-23T17:59:05.935Z,3.93
2018-07-23T18:01:35.271Z,5.03
2018-07-23T18:04:04.797Z,3.50
2018-07-23T18:06:34.116Z,35.47
2018-07-23T18:09:03.515Z,5.70
2018-07-23T18:11:33.068Z,4.67
2018-07-23T18:14:02.352Z,5.70
2018-07-23T18:16:32.037Z,6.70
2018-07-23T18:19:01.584Z,11.90
2018-07-23T18:21:30.868Z,7.80
2018-07-23T18:24:00.175Z,11.13
2018-07-23T18:26:29.476Z,5.70
2018-07-23T18:28:58.806Z,4.87
2018-07-23T18:31:28.345Z,4.43
2018-07-23T18:33:58.052Z,4.77
2018-07-23T18:36:27.387Z,6.60
2018-07-23T18:38:56.696Z,5.27
2018-07-23T18:41:26.235Z,4.30
2018-07-23T18:43:55.787Z,5.37
2018-07-23T18:46:25.066Z,3.77
2018-07-23T18:49:26.243Z,4.87
2018-07-23T18:51:56.018Z,5.37
2018-07-23T18:54:26.884Z,4.33
2018-07-23T18:56:58.454Z,14.93
2018-07-23T18:59:27.821Z,4.77
2018-07-23T19:01:57.655Z,9.57
2018-07-23T19:04:26.747Z,4.30
2018-07-23T19:06:55.824Z,5.40
2018-07-23T19:09:26.067Z,4.30
2018-07-23T19:11:56.376Z,4.80
2018-07-23T19:14:25.455Z,5.47
2018-07-23T19:16:55.800Z,3.97
2018-07-23T19:19:25.338Z,4.70
2018-07-23T19:21:54.932Z,9.00
2018-07-23T19:24:24.227Z,5.50
2018-07-23T19:26:54.427Z,7.63
2018-07-23T19:29:23.753Z,5.70
2018-07-23T19:31:53.308Z,5.03
2018-07-23T19:34:23.210Z,12.13
2018-07-23T19:36:52.284Z,3.90
2018-07-23T19:39:22.264Z,4.43
2018-07-23T19:41:52.626Z,4.90
2018-07-23T19:44:21.904Z,4.73
2018-07-23T19:46:51.194Z,6.00
2018-07-23T19:49:20.512Z,6.67
2018-07-23T19:51:49.836Z,4.93
2018-07-23T19:54:18.921Z,4.87
2018-07-23T19:56:48.276Z,5.33
2018-07-23T19:59:17.568Z,4.50
2018-07-23T20:01:46.884Z,7.77
2018-07-23T20:04:16.183Z,4.87
2018-07-23T20:06:45.516Z,7.70
2018-07-23T20:09:15.040Z,4.80
2018-07-23T20:11:44.348Z,5.50
2018-07-23T20:14:13.664Z,4.40
2018-07-23T20:16:42.972Z,4.37
2018-07-23T20:19:12.263Z,5.67
2018-07-23T20:21:41.564Z,5.43
2018-07-23T20:24:10.653Z,5.30
2018-07-23T20:26:39.970Z,4.63
2018-07-23T20:29:09.493Z,4.07
2018-07-23T20:31:39.036Z,4.63
2018-07-23T20:34:08.564Z,4.93
2018-07-23T20:36:37.852Z,4.83
2018-07-23T20:39:07.939Z,5.43
2018-07-23T20:41:37.531Z,5.43
2018-07-23T20:44:07.121Z,5.50
2018-07-23T20:46:36.430Z,5.30
2018-07-23T20:49:05.759Z,4.03
2018-07-23T20:51:35.182Z,3.83
2018-07-23T20:54:04.421Z,4.37
2018-07-23T20:56:34.003Z,4.27
2018-07-23T20:59:03.244Z,6.10
2018-07-23T21:01:32.566Z,6.67
2018-07-23T21:04:02.094Z,5.03
2018-07-23T21:06:31.394Z,4.33
2018-07-23T21:09:01.103Z,4.60
2018-07-23T21:11:30.645Z,4.20
2018-07-23T21:13:59.938Z,4.80
2018-07-23T21:16:29.263Z,4.73
2018-07-23T21:18:58.563Z,5.13
2018-07-23T21:21:27.881Z,5.37
2018-07-23T21:23:57.420Z,4.60
2018-07-23T21:26:26.703Z,4.50
2018-07-23T21:28:56.045Z,4.83
2018-07-23T21:31:25.571Z,4.87
2018-07-23T21:33:54.895Z,3.40
2018-07-23T21:36:23.973Z,4.63
2018-07-23T21:38:53.049Z,4.67
2018-07-23T21:41:22.116Z,9.40
2018-07-23T21:43:51.186Z,4.30
2018-07-23T21:46:20.499Z,4.43
2018-07-23T21:48:56.715Z,4.50
2018-07-23T21:51:25.808Z,4.30
2018-07-23T21:53:55.133Z,10.93
2018-07-23T21:56:24.664Z,3.50
2018-07-23T21:58:54.179Z,4.30
2018-07-23T22:01:23.714Z,4.30
2018-07-23T22:03:53.170Z,4.20
2018-07-23T22:06:24.500Z,4.07
2018-07-23T22:08:55.947Z,4.80
2018-07-23T22:11:25.284Z,4.63
2018-07-23T22:13:54.580Z,4.40
2018-07-23T22:16:24.119Z,5.43
2018-07-23T22:18:53.411Z,3.67
2018-07-23T22:21:22.717Z,4.33
2018-07-23T22:23:51.994Z,4.00
2018-07-23T22:26:21.266Z,4.27
2018-07-23T22:28:50.575Z,3.80
2018-07-23T22:31:19.879Z,4.33
2018-07-23T22:33:49.244Z,4.50
2018-07-23T22:36:18.988Z,4.43
2018-07-23T22:38:54.640Z,3.50
2018-07-23T22:41:23.956Z,3.40
2018-07-23T22:43:53.241Z,3.40
2018-07-23T22:46:22.550Z,3.70
2018-07-23T22:48:52.391Z,4.10
2018-07-23T22:51:21.936Z,3.70
2018-07-23T22:53:51.242Z,3.50
2018-07-23T22:56:20.344Z,4.37
2018-07-23T22:58:49.387Z,3.60
2018-07-23T23:01:19.271Z,3.50
2018-07-23T23:03:48.794Z,3.30
2018-07-23T23:06:18.285Z,4.00
2018-07-23T23:08:47.574Z,3.23
2018-07-23T23:11:16.923Z,3.77
2018-07-23T23:13:46.526Z,3.10
2018-07-23T23:16:15.616Z,2.93
2018-07-23T23:18:44.940Z,3.67
2018-07-23T23:21:14.207Z,3.30
2018-07-23T23:23:43.398Z,3.87
2018-07-23T23:26:12.478Z,3.37
2018-07-23T23:28:41.791Z,3.40
2018-07-23T23:31:11.175Z,3.20
2018-07-23T23:33:40.539Z,2.90
2018-07-23T23:36:09.855Z,2.90
2018-07-23T23:38:38.950Z,2.70
2018-07-23T23:43:43.687Z,3.10
2018-07-23T23:46:13.195Z,3.33
2018-07-23T23:48:42.491Z,2.90
2018-07-23T23:51:11.804Z,3.73
2018-07-23T23:53:41.323Z,3.17
2018-07-23T23:56:10.844Z,3.67
2018-07-23T23:58:39.922Z,3.17
